Minneapolis, Minnesota
Traffic Map
Current Weather Conditions
Minneapolis, Minnesota
Clear
Clear
-3°
Feels Like: -9°
Wind Chill: -9° Ceiling: Unl
Heat Index: -3° Visibility: 10mi
Dew Point: -8° Wind: 10mph
Humidity: 69% Direction: 240° (WSW)
Pressure: 30.07in Gusts: 0mph
Raw Report DataKMSP 180153Z 24009KT 10SM CLR M03/M08 A3007 RMK AO2 SLP199 T10331083
Traffic Incident Summary
Active as of:
Severity:
Category:
InformationThere was an issue retrieving the traffic information for this location. Please try a different location or try again shortly.
Advertisements